Joseph City, Arizona
Current Conditions -  °F | °C
As of 7:56 AM on Wednesday 26 Nov 2014 (Local Time) from KINW Reporting Station
Clear Clear  
Wind Chill: 25°   Ceiling: Unl
Heat Index: 25°   Visibility: 10mi
Dew Point:   Wind: 0mph
Humidity: 37%   Direction: NA
Pressure: 30.45"   Gusts: NA
Location:  34.96°N, 110.34°W
Report Text: KINW 261456Z AUTO 00000KT 10SM CLR M04/M17 A3045 RMK AO2 SLP338 T10391167 53013
Loading
Personal Weather Stations






























Interactive Weather Map New forecast layout! Learn more

10-Day Weather Forecast

Advertisements
Track Severe Weather on mobile